sensor_id;sensor_type;location;lat;lon;timestamp;temperature;humidity
5394;DHT22;2720;52.396;10.064;2022-07-30T00:02:16;18.80;99.90
5394;DHT22;2720;52.396;10.064;2022-07-30T00:04:43;18.80;99.90
5394;DHT22;2720;52.396;10.064;2022-07-30T00:07:12;18.70;99.90
5394;DHT22;2720;52.396;10.064;2022-07-30T00:09:39;18.70;99.90
5394;DHT22;2720;52.396;10.064;2022-07-30T00:12:07;18.70;99.90
5394;DHT22;2720;52.396;10.064;2022-07-30T00:14:34;18.60;99.90
5394;DHT22;2720;52.396;10.064;2022-07-30T00:17:02;18.60;99.90
5394;DHT22;2720;52.396;10.064;2022-07-30T00:19:30;18.60;99.90
5394;DHT22;2720;52.396;10.064;2022-07-30T00:21:57;18.50;99.90
5394;DHT22;2720;52.396;10.064;2022-07-30T00:24:25;18.40;99.90
5394;DHT22;2720;52.396;10.064;2022-07-30T00:26:52;18.40;99.90
5394;DHT22;2720;52.396;10.064;2022-07-30T00:29:19;18.40;99.90
5394;DHT22;2720;52.396;10.064;2022-07-30T00:31:46;18.40;99.90
5394;DHT22;2720;52.396;10.064;2022-07-30T00:34:13;18.40;99.90
5394;DHT22;2720;52.396;10.064;2022-07-30T00:36:40;18.30;99.90
5394;DHT22;2720;52.396;10.064;2022-07-30T00:39:07;18.30;99.90
5394;DHT22;2720;52.396;10.064;2022-07-30T00:41:52;18.20;99.90
5394;DHT22;2720;52.396;10.064;2022-07-30T00:44:19;18.30;99.90
5394;DHT22;2720;52.396;10.064;2022-07-30T00:46:46;18.20;99.90
5394;DHT22;2720;52.396;10.064;2022-07-30T00:49:13;18.20;99.90
5394;DHT22;2720;52.396;10.064;2022-07-30T00:51:40;18.20;99.90
5394;DHT22;2720;52.396;10.064;2022-07-30T00:54:07;18.10;99.90
5394;DHT22;2720;52.396;10.064;2022-07-30T00:56:35;18.20;99.90
5394;DHT22;2720;52.396;10.064;2022-07-30T00:59:02;18.20;99.90
5394;DHT22;2720;52.396;10.064;2022-07-30T01:01:30;18.20;99.90
5394;DHT22;2720;52.396;10.064;2022-07-30T01:03:58;18.10;99.90
5394;DHT22;2720;52.396;10.064;2022-07-30T01:06:25;18.10;99.90
5394;DHT22;2720;52.396;10.064;2022-07-30T01:08:52;18.10;99.90
5394;DHT22;2720;52.396;10.064;2022-07-30T01:11:20;18.10;99.90
5394;DHT22;2720;52.396;10.064;2022-07-30T01:13:49;18.10;99.90
5394;DHT22;2720;52.396;10.064;2022-07-30T01:16:16;18.10;99.90
5394;DHT22;2720;52.396;10.064;2022-07-30T01:18:44;18.10;99.90
5394;DHT22;2720;52.396;10.064;2022-07-30T01:21:33;18.10;99.90
5394;DHT22;2720;52.396;10.064;2022-07-30T01:24:16;18.10;99.90
5394;DHT22;2720;52.396;10.064;2022-07-30T01:26:48;18.10;99.90
5394;DHT22;2720;52.396;10.064;2022-07-30T01:29:16;18.10;99.90
5394;DHT22;2720;52.396;10.064;2022-07-30T01:31:45;18.00;99.90
5394;DHT22;2720;52.396;10.064;2022-07-30T01:34:14;18.00;99.90
5394;DHT22;2720;52.396;10.064;2022-07-30T01:36:44;18.00;99.90
5394;DHT22;2720;52.396;10.064;2022-07-30T01:39:12;18.10;99.90
5394;DHT22;2720;52.396;10.064;2022-07-30T01:41:41;18.10;99.90
5394;DHT22;2720;52.396;10.064;2022-07-30T01:44:11;18.10;99.90
5394;DHT22;2720;52.396;10.064;2022-07-30T01:46:46;18.10;99.90
5394;DHT22;2720;52.396;10.064;2022-07-30T01:49:15;18.10;99.90
5394;DHT22;2720;52.396;10.064;2022-07-30T01:51:44;18.10;99.90
5394;DHT22;2720;52.396;10.064;2022-07-30T01:54:13;18.10;99.90
5394;DHT22;2720;52.396;10.064;2022-07-30T01:56:45;18.00;99.90
5394;DHT22;2720;52.396;10.064;2022-07-30T01:59:17;18.00;99.90
5394;DHT22;2720;52.396;10.064;2022-07-30T02:01:44;18.00;99.90
5394;DHT22;2720;52.396;10.064;2022-07-30T02:04:11;18.00;99.90
5394;DHT22;2720;52.396;10.064;2022-07-30T02:06:42;18.00;99.90
5394;DHT22;2720;52.396;10.064;2022-07-30T02:09:14;18.00;99.90
5394;DHT22;2720;52.396;10.064;2022-07-30T02:11:49;18.00;99.90
5394;DHT22;2720;52.396;10.064;2022-07-30T02:14:46;17.90;99.90
5394;DHT22;2720;52.396;10.064;2022-07-30T02:17:20;18.00;99.90
5394;DHT22;2720;52.396;10.064;2022-07-30T02:19:52;18.00;99.90
5394;DHT22;2720;52.396;10.064;2022-07-30T02:22:23;18.00;99.90
5394;DHT22;2720;52.396;10.064;2022-07-30T02:24:55;18.00;99.90
5394;DHT22;2720;52.396;10.064;2022-07-30T02:27:26;18.00;99.90
5394;DHT22;2720;52.396;10.064;2022-07-30T02:29:57;17.80;99.90
5394;DHT22;2720;52.396;10.064;2022-07-30T02:32:26;17.90;99.90
5394;DHT22;2720;52.396;10.064;2022-07-30T02:34:58;17.90;99.90
5394;DHT22;2720;52.396;10.064;2022-07-30T02:37:26;17.90;99.90
5394;DHT22;2720;52.396;10.064;2022-07-30T02:39:55;17.90;99.90
5394;DHT22;2720;52.396;10.064;2022-07-30T02:42:23;18.40;99.90
5394;DHT22;2720;52.396;10.064;2022-07-30T02:44:52;17.90;99.90
5394;DHT22;2720;52.396;10.064;2022-07-30T02:47:22;17.90;99.90
5394;DHT22;2720;52.396;10.064;2022-07-30T02:49:50;17.80;99.90
5394;DHT22;2720;52.396;10.064;2022-07-30T02:52:19;17.80;99.90
5394;DHT22;2720;52.396;10.064;2022-07-30T02:54:47;17.80;99.90
5394;DHT22;2720;52.396;10.064;2022-07-30T02:57:16;17.90;99.90
5394;DHT22;2720;52.396;10.064;2022-07-30T02:59:46;17.90;99.90
5394;DHT22;2720;52.396;10.064;2022-07-30T03:02:14;17.90;99.90
5394;DHT22;2720;52.396;10.064;2022-07-30T03:04:44;17.90;99.90
5394;DHT22;2720;52.396;10.064;2022-07-30T03:07:13;17.90;99.90
5394;DHT22;2720;52.396;10.064;2022-07-30T03:09:41;17.90;99.90
5394;DHT22;2720;52.396;10.064;2022-07-30T03:12:11;17.90;99.90
5394;DHT22;2720;52.396;10.064;2022-07-30T03:14:39;17.90;99.90
5394;DHT22;2720;52.396;10.064;2022-07-30T03:17:08;17.80;99.90
5394;DHT22;2720;52.396;10.064;2022-07-30T03:19:37;17.80;99.90
5394;DHT22;2720;52.396;10.064;2022-07-30T03:22:08;17.80;99.90
5394;DHT22;2720;52.396;10.064;2022-07-30T03:24:37;17.70;99.90
5394;DHT22;2720;52.396;10.064;2022-07-30T03:27:06;17.70;99.90
5394;DHT22;2720;52.396;10.064;2022-07-30T03:29:34;17.70;99.90
5394;DHT22;2720;52.396;10.064;2022-07-30T03:32:03;17.70;99.90
5394;DHT22;2720;52.396;10.064;2022-07-30T03:34:31;17.50;99.90
5394;DHT22;2720;52.396;10.064;2022-07-30T03:36:59;17.50;99.90
5394;DHT22;2720;52.396;10.064;2022-07-30T03:39:28;17.30;99.90
5394;DHT22;2720;52.396;10.064;2022-07-30T03:41:55;17.20;99.90
5394;DHT22;2720;52.396;10.064;2022-07-30T03:44:23;17.00;99.90
5394;DHT22;2720;52.396;10.064;2022-07-30T03:46:51;16.80;99.90
5394;DHT22;2720;52.396;10.064;2022-07-30T03:49:20;16.70;99.90
5394;DHT22;2720;52.396;10.064;2022-07-30T03:51:49;16.60;99.90
5394;DHT22;2720;52.396;10.064;2022-07-30T03:54:18;16.50;99.90
5394;DHT22;2720;52.396;10.064;2022-07-30T03:56:46;16.40;99.90
5394;DHT22;2720;52.396;10.064;2022-07-30T03:59:14;16.40;99.90
5394;DHT22;2720;52.396;10.064;2022-07-30T04:01:41;16.40;99.90
5394;DHT22;2720;52.396;10.064;2022-07-30T04:04:09;16.40;99.90
5394;DHT22;2720;52.396;10.064;2022-07-30T04:06:37;16.40;99.90
5394;DHT22;2720;52.396;10.064;2022-07-30T04:09:06;16.50;99.90
5394;DHT22;2720;52.396;10.064;2022-07-30T04:11:33;16.50;99.90
5394;DHT22;2720;52.396;10.064;2022-07-30T04:14:02;17.80;99.90
5394;DHT22;2720;52.396;10.064;2022-07-30T04:16:36;16.30;99.90
5394;DHT22;2720;52.396;10.064;2022-07-30T04:19:06;16.30;99.90
5394;DHT22;2720;52.396;10.064;2022-07-30T04:21:35;16.40;99.90
5394;DHT22;2720;52.396;10.064;2022-07-30T04:24:04;16.40;99.90
5394;DHT22;2720;52.396;10.064;2022-07-30T04:26:34;16.40;99.90
5394;DHT22;2720;52.396;10.064;2022-07-30T04:29:05;16.40;99.90
5394;DHT22;2720;52.396;10.064;2022-07-30T04:31:32;16.30;99.90
5394;DHT22;2720;52.396;10.064;2022-07-30T04:34:01;16.40;99.90
5394;DHT22;2720;52.396;10.064;2022-07-30T04:36:29;16.20;99.90
5394;DHT22;2720;52.396;10.064;2022-07-30T04:38:56;16.30;99.90
5394;DHT22;2720;52.396;10.064;2022-07-30T04:41:23;16.30;99.90
5394;DHT22;2720;52.396;10.064;2022-07-30T04:43:51;16.30;99.90
5394;DHT22;2720;52.396;10.064;2022-07-30T04:46:19;16.60;99.90
5394;DHT22;2720;52.396;10.064;2022-07-30T04:48:46;16.30;99.90
5394;DHT22;2720;52.396;10.064;2022-07-30T04:51:17;16.40;99.90
5394;DHT22;2720;52.396;10.064;2022-07-30T04:53:45;16.30;99.90
5394;DHT22;2720;52.396;10.064;2022-07-30T04:56:14;16.40;99.90
5394;DHT22;2720;52.396;10.064;2022-07-30T04:58:42;16.40;99.90
5394;DHT22;2720;52.396;10.064;2022-07-30T05:01:11;16.00;99.90
5394;DHT22;2720;52.396;10.064;2022-07-30T05:03:39;16.20;99.90
5394;DHT22;2720;52.396;10.064;2022-07-30T05:06:07;16.30;99.90
5394;DHT22;2720;52.396;10.064;2022-07-30T05:08:35;16.20;99.90
5394;DHT22;2720;52.396;10.064;2022-07-30T05:11:03;16.20;99.90
5394;DHT22;2720;52.396;10.064;2022-07-30T05:13:30;16.10;99.90
5394;DHT22;2720;52.396;10.064;2022-07-30T05:15:57;16.20;99.90
5394;DHT22;2720;52.396;10.064;2022-07-30T05:18:24;16.20;99.90
5394;DHT22;2720;52.396;10.064;2022-07-30T05:20:52;16.20;99.90
5394;DHT22;2720;52.396;10.064;2022-07-30T05:23:19;16.30;99.90
5394;DHT22;2720;52.396;10.064;2022-07-30T05:25:46;15.70;99.90
5394;DHT22;2720;52.396;10.064;2022-07-30T05:28:13;16.40;99.90
5394;DHT22;2720;52.396;10.064;2022-07-30T05:30:40;16.20;99.90
5394;DHT22;2720;52.396;10.064;2022-07-30T05:33:07;16.30;99.90
5394;DHT22;2720;52.396;10.064;2022-07-30T05:35:34;16.30;99.90
5394;DHT22;2720;52.396;10.064;2022-07-30T05:38:02;16.40;99.90
5394;DHT22;2720;52.396;10.064;2022-07-30T05:40:29;16.40;99.90
5394;DHT22;2720;52.396;10.064;2022-07-30T05:42:56;16.20;99.90
5394;DHT22;2720;52.396;10.064;2022-07-30T05:45:23;16.30;99.90
5394;DHT22;2720;52.396;10.064;2022-07-30T05:47:51;16.40;99.90
5394;DHT22;2720;52.396;10.064;2022-07-30T05:50:18;16.60;99.90
5394;DHT22;2720;52.396;10.064;2022-07-30T05:52:44;16.50;99.90
5394;DHT22;2720;52.396;10.064;2022-07-30T05:55:13;16.80;99.90
5394;DHT22;2720;52.396;10.064;2022-07-30T05:57:40;16.50;99.90
5394;DHT22;2720;52.396;10.064;2022-07-30T06:00:09;17.10;99.90
5394;DHT22;2720;52.396;10.064;2022-07-30T06:02:36;17.10;99.90
5394;DHT22;2720;52.396;10.064;2022-07-30T06:05:06;16.90;99.90
5394;DHT22;2720;52.396;10.064;2022-07-30T06:07:33;17.00;99.90
5394;DHT22;2720;52.396;10.064;2022-07-30T06:10:00;17.10;99.90
5394;DHT22;2720;52.396;10.064;2022-07-30T06:12:29;17.30;99.90
5394;DHT22;2720;52.396;10.064;2022-07-30T06:14:56;17.30;99.90
5394;DHT22;2720;52.396;10.064;2022-07-30T06:17:23;17.30;99.90
5394;DHT22;2720;52.396;10.064;2022-07-30T06:19:50;17.70;99.90
5394;DHT22;2720;52.396;10.064;2022-07-30T06:22:18;17.30;99.90
5394;DHT22;2720;52.396;10.064;2022-07-30T06:24:45;17.40;99.90
5394;DHT22;2720;52.396;10.064;2022-07-30T06:27:12;17.50;99.90
5394;DHT22;2720;52.396;10.064;2022-07-30T06:29:40;17.80;99.90
5394;DHT22;2720;52.396;10.064;2022-07-30T06:34:35;18.80;99.90
5394;DHT22;2720;52.396;10.064;2022-07-30T06:37:02;17.80;99.90
5394;DHT22;2720;52.396;10.064;2022-07-30T06:39:29;17.90;99.90
5394;DHT22;2720;52.396;10.064;2022-07-30T06:41:56;17.90;99.90
5394;DHT22;2720;52.396;10.064;2022-07-30T06:44:23;18.10;99.90
5394;DHT22;2720;52.396;10.064;2022-07-30T06:46:51;18.10;99.90
5394;DHT22;2720;52.396;10.064;2022-07-30T06:49:18;18.10;99.90
5394;DHT22;2720;52.396;10.064;2022-07-30T06:51:45;18.00;99.90
5394;DHT22;2720;52.396;10.064;2022-07-30T06:54:12;17.90;99.90
5394;DHT22;2720;52.396;10.064;2022-07-30T06:56:39;18.00;99.90
5394;DHT22;2720;52.396;10.064;2022-07-30T06:59:06;18.10;99.90
5394;DHT22;2720;52.396;10.064;2022-07-30T07:01:33;18.40;99.90
5394;DHT22;2720;52.396;10.064;2022-07-30T07:04:02;18.40;99.90
5394;DHT22;2720;52.396;10.064;2022-07-30T07:06:29;18.60;99.90
5394;DHT22;2720;52.396;10.064;2022-07-30T07:08:56;18.70;99.90
5394;DHT22;2720;52.396;10.064;2022-07-30T07:11:23;18.80;99.90
5394;DHT22;2720;52.396;10.064;2022-07-30T07:13:50;18.80;99.90
5394;DHT22;2720;52.396;10.064;2022-07-30T07:16:17;18.70;99.90
5394;DHT22;2720;52.396;10.064;2022-07-30T07:18:46;18.80;99.90
5394;DHT22;2720;52.396;10.064;2022-07-30T07:21:15;19.00;99.90
5394;DHT22;2720;52.396;10.064;2022-07-30T07:23:42;19.00;99.90
5394;DHT22;2720;52.396;10.064;2022-07-30T07:26:10;19.10;99.90
5394;DHT22;2720;52.396;10.064;2022-07-30T07:28:37;18.30;99.90
5394;DHT22;2720;52.396;10.064;2022-07-30T07:31:05;19.00;99.90
5394;DHT22;2720;52.396;10.064;2022-07-30T07:33:32;19.00;99.90
5394;DHT22;2720;52.396;10.064;2022-07-30T07:35:59;19.00;99.90
5394;DHT22;2720;52.396;10.064;2022-07-30T07:38:28;19.00;99.90
5394;DHT22;2720;52.396;10.064;2022-07-30T07:40:55;19.20;99.90
5394;DHT22;2720;52.396;10.064;2022-07-30T07:43:22;19.30;99.90
5394;DHT22;2720;52.396;10.064;2022-07-30T07:45:50;19.50;99.90
5394;DHT22;2720;52.396;10.064;2022-07-30T07:48:18;19.80;99.90
5394;DHT22;2720;52.396;10.064;2022-07-30T07:50:45;19.90;99.90
5394;DHT22;2720;52.396;10.064;2022-07-30T07:53:12;20.30;99.90
5394;DHT22;2720;52.396;10.064;2022-07-30T07:55:40;20.50;99.90
5394;DHT22;2720;52.396;10.064;2022-07-30T07:58:07;20.60;99.90
5394;DHT22;2720;52.396;10.064;2022-07-30T08:00:36;20.50;99.90
5394;DHT22;2720;52.396;10.064;2022-07-30T08:03:03;20.50;99.90
5394;DHT22;2720;52.396;10.064;2022-07-30T08:05:30;20.60;99.90
5394;DHT22;2720;52.396;10.064;2022-07-30T08:07:57;20.70;99.90
5394;DHT22;2720;52.396;10.064;2022-07-30T08:10:24;20.90;99.90
5394;DHT22;2720;52.396;10.064;2022-07-30T08:12:52;21.20;99.90
5394;DHT22;2720;52.396;10.064;2022-07-30T08:15:20;21.30;99.90
5394;DHT22;2720;52.396;10.064;2022-07-30T08:17:47;21.40;99.90
5394;DHT22;2720;52.396;10.064;2022-07-30T08:20:14;21.40;99.90
5394;DHT22;2720;52.396;10.064;2022-07-30T08:22:41;21.50;99.90
5394;DHT22;2720;52.396;10.064;2022-07-30T08:25:09;21.60;99.90
5394;DHT22;2720;52.396;10.064;2022-07-30T08:27:36;21.70;99.90
5394;DHT22;2720;52.396;10.064;2022-07-30T08:30:06;21.70;99.90
5394;DHT22;2720;52.396;10.064;2022-07-30T08:32:33;22.00;99.90
5394;DHT22;2720;52.396;10.064;2022-07-30T08:35:00;21.90;99.90
5394;DHT22;2720;52.396;10.064;2022-07-30T08:37:28;21.80;99.90
5394;DHT22;2720;52.396;10.064;2022-07-30T08:39:55;21.80;99.90
5394;DHT22;2720;52.396;10.064;2022-07-30T08:42:22;21.80;99.90
5394;DHT22;2720;52.396;10.064;2022-07-30T08:44:52;21.80;99.90
5394;DHT22;2720;52.396;10.064;2022-07-30T08:47:24;21.80;99.90
5394;DHT22;2720;52.396;10.064;2022-07-30T08:49:53;21.90;99.90
5394;DHT22;2720;52.396;10.064;2022-07-30T08:52:26;22.10;99.90
5394;DHT22;2720;52.396;10.064;2022-07-30T08:54:53;22.10;99.90
5394;DHT22;2720;52.396;10.064;2022-07-30T08:57:21;22.30;99.90
5394;DHT22;2720;52.396;10.064;2022-07-30T08:59:48;22.40;99.90
5394;DHT22;2720;52.396;10.064;2022-07-30T09:02:16;22.40;99.90
5394;DHT22;2720;52.396;10.064;2022-07-30T09:04:44;22.50;99.90
5394;DHT22;2720;52.396;10.064;2022-07-30T09:07:11;22.50;99.90
5394;DHT22;2720;52.396;10.064;2022-07-30T09:09:38;22.50;99.90
5394;DHT22;2720;52.396;10.064;2022-07-30T09:12:32;22.30;99.90
5394;DHT22;2720;52.396;10.064;2022-07-30T09:15:01;22.30;99.90
5394;DHT22;2720;52.396;10.064;2022-07-30T09:17:28;22.40;99.90
5394;DHT22;2720;52.396;10.064;2022-07-30T09:20:10;22.70;99.90
5394;DHT22;2720;52.396;10.064;2022-07-30T09:22:42;22.90;99.90
5394;DHT22;2720;52.396;10.064;2022-07-30T09:25:12;23.00;99.90
5394;DHT22;2720;52.396;10.064;2022-07-30T09:27:48;23.20;99.90
5394;DHT22;2720;52.396;10.064;2022-07-30T09:30:16;23.00;99.90
5394;DHT22;2720;52.396;10.064;2022-07-30T09:32:47;23.20;99.90
5394;DHT22;2720;52.396;10.064;2022-07-30T09:35:15;23.10;99.90
5394;DHT22;2720;52.396;10.064;2022-07-30T09:37:43;23.10;99.90
5394;DHT22;2720;52.396;10.064;2022-07-30T09:40:12;23.30;99.90
5394;DHT22;2720;52.396;10.064;2022-07-30T09:42:39;23.50;99.90
5394;DHT22;2720;52.396;10.064;2022-07-30T09:45:08;23.40;99.90
5394;DHT22;2720;52.396;10.064;2022-07-30T09:47:36;23.40;99.90
5394;DHT22;2720;52.396;10.064;2022-07-30T09:50:05;23.60;99.90
5394;DHT22;2720;52.396;10.064;2022-07-30T09:52:35;23.50;99.90
5394;DHT22;2720;52.396;10.064;2022-07-30T09:55:02;23.30;99.90
5394;DHT22;2720;52.396;10.064;2022-07-30T09:57:30;23.00;99.90
5394;DHT22;2720;52.396;10.064;2022-07-30T09:59:58;22.90;99.90
5394;DHT22;2720;52.396;10.064;2022-07-30T10:02:41;23.00;99.90
5394;DHT22;2720;52.396;10.064;2022-07-30T10:05:10;23.00;99.90
5394;DHT22;2720;52.396;10.064;2022-07-30T10:07:38;23.00;99.90
5394;DHT22;2720;52.396;10.064;2022-07-30T10:10:06;23.20;99.90
5394;DHT22;2720;52.396;10.064;2022-07-30T10:12:33;23.30;99.90
5394;DHT22;2720;52.396;10.064;2022-07-30T10:15:01;23.40;99.90
5394;DHT22;2720;52.396;10.064;2022-07-30T10:17:31;23.40;99.90
5394;DHT22;2720;52.396;10.064;2022-07-30T10:19:58;23.50;99.90
5394;DHT22;2720;52.396;10.064;2022-07-30T10:22:26;23.60;99.90
5394;DHT22;2720;52.396;10.064;2022-07-30T10:24:55;23.60;99.90
5394;DHT22;2720;52.396;10.064;2022-07-30T10:27:22;23.60;99.90
5394;DHT22;2720;52.396;10.064;2022-07-30T10:29:50;23.50;99.90
5394;DHT22;2720;52.396;10.064;2022-07-30T10:32:18;23.60;99.90
5394;DHT22;2720;52.396;10.064;2022-07-30T10:34:45;23.60;99.90
5394;DHT22;2720;52.396;10.064;2022-07-30T10:37:13;23.80;99.90
5394;DHT22;2720;52.396;10.064;2022-07-30T10:39:46;23.80;99.90
5394;DHT22;2720;52.396;10.064;2022-07-30T10:42:29;24.00;99.90
5394;DHT22;2720;52.396;10.064;2022-07-30T10:45:16;24.20;99.90
5394;DHT22;2720;52.396;10.064;2022-07-30T10:47:45;23.90;99.90
5394;DHT22;2720;52.396;10.064;2022-07-30T10:50:13;23.90;99.90
5394;DHT22;2720;52.396;10.064;2022-07-30T10:52:47;24.00;99.90
5394;DHT22;2720;52.396;10.064;2022-07-30T10:55:17;24.10;99.90
5394;DHT22;2720;52.396;10.064;2022-07-30T10:57:59;24.30;99.90
5394;DHT22;2720;52.396;10.064;2022-07-30T11:00:27;24.60;99.90
5394;DHT22;2720;52.396;10.064;2022-07-30T11:03:14;24.80;99.90
5394;DHT22;2720;52.396;10.064;2022-07-30T11:05:42;24.80;99.90
5394;DHT22;2720;52.396;10.064;2022-07-30T11:08:35;24.80;99.90
5394;DHT22;2720;52.396;10.064;2022-07-30T11:11:03;24.90;99.90
5394;DHT22;2720;52.396;10.064;2022-07-30T11:13:52;25.30;99.90
5394;DHT22;2720;52.396;10.064;2022-07-30T11:16:21;25.80;99.90
5394;DHT22;2720;52.396;10.064;2022-07-30T11:19:06;25.90;99.90
5394;DHT22;2720;52.396;10.064;2022-07-30T11:21:33;26.30;99.90
5394;DHT22;2720;52.396;10.064;2022-07-30T11:24:01;26.60;99.90
5394;DHT22;2720;52.396;10.064;2022-07-30T11:26:48;27.00;99.90
5394;DHT22;2720;52.396;10.064;2022-07-30T11:29:34;27.30;99.90
5394;DHT22;2720;52.396;10.064;2022-07-30T11:32:24;27.40;99.90
5394;DHT22;2720;52.396;10.064;2022-07-30T11:34:52;27.80;99.90
5394;DHT22;2720;52.396;10.064;2022-07-30T11:37:19;28.20;99.90
5394;DHT22;2720;52.396;10.064;2022-07-30T11:40:05;28.40;99.90
5394;DHT22;2720;52.396;10.064;2022-07-30T11:42:34;28.60;99.90
5394;DHT22;2720;52.396;10.064;2022-07-30T11:45:24;29.00;99.90
5394;DHT22;2720;52.396;10.064;2022-07-30T11:47:58;28.90;99.90
5394;DHT22;2720;52.396;10.064;2022-07-30T11:50:31;28.60;99.90
5394;DHT22;2720;52.396;10.064;2022-07-30T11:53:00;28.60;99.90
5394;DHT22;2720;52.396;10.064;2022-07-30T11:55:29;28.80;99.90
5394;DHT22;2720;52.396;10.064;2022-07-30T11:57:58;29.30;99.90
5394;DHT22;2720;52.396;10.064;2022-07-30T12:00:33;29.70;99.90
5394;DHT22;2720;52.396;10.064;2022-07-30T12:03:05;29.80;99.90
5394;DHT22;2720;52.396;10.064;2022-07-30T12:05:33;29.70;99.90
5394;DHT22;2720;52.396;10.064;2022-07-30T12:08:00;29.20;99.90
5394;DHT22;2720;52.396;10.064;2022-07-30T12:10:27;28.80;99.90
5394;DHT22;2720;52.396;10.064;2022-07-30T12:13:05;28.70;99.90
5394;DHT22;2720;52.396;10.064;2022-07-30T12:15:35;28.40;99.90
5394;DHT22;2720;52.396;10.064;2022-07-30T12:18:03;28.00;99.90
5394;DHT22;2720;52.396;10.064;2022-07-30T12:20:30;28.00;99.90
5394;DHT22;2720;52.396;10.064;2022-07-30T12:22:57;28.20;99.90
5394;DHT22;2720;52.396;10.064;2022-07-30T12:25:24;28.40;99.90
5394;DHT22;2720;52.396;10.064;2022-07-30T12:27:52;28.60;99.90
5394;DHT22;2720;52.396;10.064;2022-07-30T12:30:19;28.80;99.90
5394;DHT22;2720;52.396;10.064;2022-07-30T12:32:49;29.00;99.90
5394;DHT22;2720;52.396;10.064;2022-07-30T12:35:17;29.00;99.90
5394;DHT22;2720;52.396;10.064;2022-07-30T12:38:01;29.20;99.90
5394;DHT22;2720;52.396;10.064;2022-07-30T12:40:29;29.70;99.90
5394;DHT22;2720;52.396;10.064;2022-07-30T12:42:57;30.30;99.90
5394;DHT22;2720;52.396;10.064;2022-07-30T12:45:29;30.40;99.60
5394;DHT22;2720;52.396;10.064;2022-07-30T12:47:59;30.60;98.50
5394;DHT22;2720;52.396;10.064;2022-07-30T12:50:26;30.50;99.90
5394;DHT22;2720;52.396;10.064;2022-07-30T12:52:54;30.30;97.60
5394;DHT22;2720;52.396;10.064;2022-07-30T12:55:29;30.40;98.40
5394;DHT22;2720;52.396;10.064;2022-07-30T12:57:58;30.80;98.60
5394;DHT22;2720;52.396;10.064;2022-07-30T13:00:27;31.00;99.90
5394;DHT22;2720;52.396;10.064;2022-07-30T13:02:55;31.40;99.10
5394;DHT22;2720;52.396;10.064;2022-07-30T13:05:45;31.60;99.90
5394;DHT22;2720;52.396;10.064;2022-07-30T13:08:12;31.80;99.80
5394;DHT22;2720;52.396;10.064;2022-07-30T13:10:53;31.90;99.10
5394;DHT22;2720;52.396;10.064;2022-07-30T13:13:21;32.10;96.90
5394;DHT22;2720;52.396;10.064;2022-07-30T13:15:57;32.20;99.10
5394;DHT22;2720;52.396;10.064;2022-07-30T13:18:25;32.20;96.50
5394;DHT22;2720;52.396;10.064;2022-07-30T13:23:21;31.90;95.10
5394;DHT22;2720;52.396;10.064;2022-07-30T13:25:49;32.10;98.20
5394;DHT22;2720;52.396;10.064;2022-07-30T13:28:16;32.30;96.20
5394;DHT22;2720;52.396;10.064;2022-07-30T13:30:43;32.00;96.80
5394;DHT22;2720;52.396;10.064;2022-07-30T13:33:10;31.90;95.70
5394;DHT22;2720;52.396;10.064;2022-07-30T13:35:38;31.80;96.50
5394;DHT22;2720;52.396;10.064;2022-07-30T13:38:06;31.70;97.30
5394;DHT22;2720;52.396;10.064;2022-07-30T13:40:34;31.40;95.50
5394;DHT22;2720;52.396;10.064;2022-07-30T13:43:01;31.30;96.60
5394;DHT22;2720;52.396;10.064;2022-07-30T13:45:29;31.00;96.00
5394;DHT22;2720;52.396;10.064;2022-07-30T13:47:56;30.60;97.10
5394;DHT22;2720;52.396;10.064;2022-07-30T13:50:23;30.60;95.90
5394;DHT22;2720;52.396;10.064;2022-07-30T13:52:50;30.70;96.50
5394;DHT22;2720;52.396;10.064;2022-07-30T13:55:19;30.80;97.10
5394;DHT22;2720;52.396;10.064;2022-07-30T13:57:46;31.40;97.30
5394;DHT22;2720;52.396;10.064;2022-07-30T14:00:13;31.70;95.30
5394;DHT22;2720;52.396;10.064;2022-07-30T14:02:41;31.70;96.90
5394;DHT22;2720;52.396;10.064;2022-07-30T14:05:08;31.50;98.90
5394;DHT22;2720;52.396;10.064;2022-07-30T14:07:36;31.30;95.50
5394;DHT22;2720;52.396;10.064;2022-07-30T14:10:04;31.10;96.10
5394;DHT22;2720;52.396;10.064;2022-07-30T14:12:34;31.20;95.80
5394;DHT22;2720;52.396;10.064;2022-07-30T14:15:03;31.40;94.90
5394;DHT22;2720;52.396;10.064;2022-07-30T14:17:31;31.80;99.90
5394;DHT22;2720;52.396;10.064;2022-07-30T14:19:58;32.10;94.70
5394;DHT22;2720;52.396;10.064;2022-07-30T14:22:25;32.10;96.90
5394;DHT22;2720;52.396;10.064;2022-07-30T14:24:52;32.30;95.30
5394;DHT22;2720;52.396;10.064;2022-07-30T14:27:19;32.70;98.40
5394;DHT22;2720;52.396;10.064;2022-07-30T14:29:50;33.00;93.70
5394;DHT22;2720;52.396;10.064;2022-07-30T14:32:17;33.00;93.90
5394;DHT22;2720;52.396;10.064;2022-07-30T14:34:44;32.80;94.30
5394;DHT22;2720;52.396;10.064;2022-07-30T14:37:11;33.00;94.70
5394;DHT22;2720;52.396;10.064;2022-07-30T14:39:38;32.90;94.80
5394;DHT22;2720;52.396;10.064;2022-07-30T14:42:05;32.80;93.20
5394;DHT22;2720;52.396;10.064;2022-07-30T14:44:32;32.60;93.90
5394;DHT22;2720;52.396;10.064;2022-07-30T14:47:00;31.90;92.50
5394;DHT22;2720;52.396;10.064;2022-07-30T14:49:27;31.30;94.10
5394;DHT22;2720;52.396;10.064;2022-07-30T14:51:55;30.90;94.70
5394;DHT22;2720;52.396;10.064;2022-07-30T14:54:24;31.70;93.40
5394;DHT22;2720;52.396;10.064;2022-07-30T14:56:52;31.60;93.60
5394;DHT22;2720;52.396;10.064;2022-07-30T14:59:19;31.50;95.30
5394;DHT22;2720;52.396;10.064;2022-07-30T15:01:48;31.50;95.50
5394;DHT22;2720;52.396;10.064;2022-07-30T15:04:17;31.70;94.60
5394;DHT22;2720;52.396;10.064;2022-07-30T15:06:44;32.10;94.60
5394;DHT22;2720;52.396;10.064;2022-07-30T15:09:11;32.40;94.70
5394;DHT22;2720;52.396;10.064;2022-07-30T15:11:38;32.80;94.90
5394;DHT22;2720;52.396;10.064;2022-07-30T15:14:05;33.40;96.20
5394;DHT22;2720;52.396;10.064;2022-07-30T15:16:32;33.70;96.30
5394;DHT22;2720;52.396;10.064;2022-07-30T15:18:59;33.70;95.80
5394;DHT22;2720;52.396;10.064;2022-07-30T15:21:28;33.90;95.10
5394;DHT22;2720;52.396;10.064;2022-07-30T15:23:55;33.80;94.50
5394;DHT22;2720;52.396;10.064;2022-07-30T15:26:22;33.70;94.20
5394;DHT22;2720;52.396;10.064;2022-07-30T15:28:51;33.90;99.90
5394;DHT22;2720;52.396;10.064;2022-07-30T15:31:18;33.90;99.90
5394;DHT22;2720;52.396;10.064;2022-07-30T15:33:45;34.10;99.90
5394;DHT22;2720;52.396;10.064;2022-07-30T15:36:14;34.20;97.30
5394;DHT22;2720;52.396;10.064;2022-07-30T15:38:42;34.10;96.30
5394;DHT22;2720;52.396;10.064;2022-07-30T15:41:09;34.20;96.50
5394;DHT22;2720;52.396;10.064;2022-07-30T15:43:36;33.30;98.60
5394;DHT22;2720;52.396;10.064;2022-07-30T15:46:03;33.70;98.90
5394;DHT22;2720;52.396;10.064;2022-07-30T15:48:30;33.70;99.70
5394;DHT22;2720;52.396;10.064;2022-07-30T15:51:00;33.60;99.90
5394;DHT22;2720;52.396;10.064;2022-07-30T15:53:27;33.30;99.90
5394;DHT22;2720;52.396;10.064;2022-07-30T15:55:57;32.80;99.50
5394;DHT22;2720;52.396;10.064;2022-07-30T15:58:26;31.60;99.90
5394;DHT22;2720;52.396;10.064;2022-07-30T16:00:53;31.50;99.90
5394;DHT22;2720;52.396;10.064;2022-07-30T16:03:20;32.30;99.20